Thursday, March 30, 2017, 2:24 PM EDT

KFDK, Frederick, Frederick Municipal Airport

Location: Frederick, MD, United States Lat: 39.417
Local Time: 2:24 PM EDT (18:24 GMT) Lon: -77.374
Time Zone: US/Eastern Elev: 301 ft

Show me the last for .
Show Decoded

2017-03-30 13:47 METAR KFDK 301747Z 14005KT 10SM OVC048 12/03 A3019 =
2017-03-30 12:47 METAR KFDK 301647Z 15004KT 10SM OVC050 11/02 A3022 =
2017-03-30 11:47 METAR KFDK 301547Z 00000KT 10SM OVC050 09/01 A3025 =
2017-03-30 10:47 METAR KFDK 301447Z 00000KT 10SM OVC060 08/01 A3028 =
2017-03-30 09:47 METAR KFDK 301347Z 00000KT 10SM OVC060 07/01 A3028 =
2017-03-30 08:48 METAR KFDK 301248Z 01004KT 10SM OVC060 06/02 A3030 =
2017-03-30 07:50 METAR KFDK 301150Z 00000KT 10SM OVC060 05/02 A3030 =
2017-03-30 07:35 METAR KFDK 301135Z AUTO 03003KT 10SM OVC060 04/02 A3029 RMK AO2 =
2017-03-30 07:15 METAR KFDK 301115Z AUTO 01003KT 10SM OVC060 05/01 A3030 RMK AO2 =
2017-03-30 06:55 METAR KFDK 301055Z AUTO 00000KT 10SM BKN060 BKN075 04/01 A3029 RMK AO2 =
2017-03-30 06:48 METAR KFDK 301048Z 00000KT 10SM SCT060 BKN075 03/02 A3029 =
2017-03-30 06:35 METAR KFDK 301035Z AUTO 00000KT 10SM SCT060 BKN075 03/01 A3028 RMK AO2 LTG DSNT
                 W =
2017-03-30 06:15 METAR KFDK 301015Z AUTO 02003KT 10SM BKN070 03/02 A3028 RMK AO2 =
2017-03-30 05:55 METAR KFDK 300955Z AUTO 00000KT 10SM BKN070 03/01 A3028 RMK AO2 =
2017-03-30 05:35 METAR KFDK 300935Z AUTO 00000KT 10SM OVC070 02/02 A3027 RMK AO2 =
2017-03-30 05:15 METAR KFDK 300915Z AUTO 00000KT 10SM BKN070 02/02 A3026 RMK AO2 LTG DSNT W =
2017-03-30 04:55 METAR KFDK 300855Z AUTO 00000KT 10SM CLR 03/01 A3026 RMK AO2 LTG DSNT W =
2017-03-30 04:35 METAR KFDK 300835Z AUTO 02004KT 10SM CLR 03/01 A3025 RMK AO2 LTG DSNT W =
2017-03-30 04:15 METAR KFDK 300815Z AUTO 01004KT 10SM CLR 03/02 A3025 RMK AO2 LTG DSNT W =
2017-03-30 03:55 METAR KFDK 300755Z AUTO 00000KT 10SM CLR 04/03 A3025 RMK AO2 =
2017-03-30 03:35 METAR KFDK 300735Z AUTO 00000KT 10SM CLR 03/03 A3025 RMK AO2 LTG DSNT W =
2017-03-30 03:15 METAR KFDK 300715Z AUTO 00000KT 10SM CLR 03/03 A3025 RMK AO2 LTG DSNT W =
2017-03-30 02:55 METAR KFDK 300655Z AUTO 00000KT 10SM CLR 03/03 A3024 RMK AO2 LTG DSNT W =
2017-03-30 02:35 METAR KFDK 300635Z AUTO 00000KT 10SM CLR 04/03 A3024 RMK AO2 LTG DSNT W =
2017-03-30 02:15 METAR KFDK 300615Z AUTO 00000KT 10SM CLR 04/02 A3024 RMK AO2 LTG DSNT W =
2017-03-30 01:55 METAR KFDK 300555Z AUTO 00000KT 10SM CLR 04/04 A3023 RMK AO2 LTG DSNT W =
2017-03-30 01:35 METAR KFDK 300535Z AUTO 00000KT 10SM CLR 05/03 A3023 RMK AO2 =
2017-03-30 01:15 METAR KFDK 300515Z AUTO 00000KT 10SM CLR 04/03 A3023 RMK AO2 LTG DSNT W =
2017-03-30 00:55 METAR KFDK 300455Z AUTO 00000KT 10SM CLR 06/02 A3023 RMK AO2 LTG DSNT W =
2017-03-30 00:35 METAR KFDK 300435Z AUTO 03003KT 10SM CLR 05/03 A3024 RMK AO2 LTG DSNT W =
2017-03-30 00:15 METAR KFDK 300415Z AUTO 04003KT 10SM CLR 07/04 A3023 RMK AO2 LTG DSNT W =
2017-03-29 23:55 METAR KFDK 300355Z AUTO 00000KT 10SM CLR 06/03 A3023 RMK AO2 LTG DSNT W =
2017-03-29 23:30 METAR KFDK 300330Z AUTO 03003KT 10SM CLR 07/03 A3023 RMK AO2 LTG DSNT W =
2017-03-29 23:15 METAR KFDK 300315Z AUTO 02003KT 10SM CLR 07/03 A3024 RMK AO2 =
2017-03-29 22:55 METAR KFDK 300255Z AUTO 01003KT 10SM CLR 08/04 A3024 RMK AO2 LTG DSNT W =
2017-03-29 22:35 METAR KFDK 300235Z AUTO 35003KT 10SM CLR 08/04 A3023 RMK AO2 =
2017-03-29 22:15 METAR KFDK 300215Z AUTO 00000KT 10SM CLR 10/05 A3023 RMK AO2 LTG DSNT W =
2017-03-29 19:47 METAR KFDK 292347Z 05006KT 10SM SKC 13/03 A3017 =
2017-03-29 18:50 METAR KFDK 292250Z 02008KT 10SM CLR17/03 A3015 =
2017-03-29 17:48 METAR KFDK 292148Z 02006KT 10SM SKC 18/04 A3014 =
2017-03-29 16:47 METAR KFDK 292047Z 05004KT 10SM CLR 18/05 A3014 =
2017-03-29 15:47 METAR KFDK 291947Z 04005KT 10SM CLR 18/06 A3012 =
2017-03-29 14:50 METAR KFDK 291850Z 05007KT 10SM CLR 18/07 A3013 =

Support USWX by starting your Amazon purchase here.